Time;durP1;ratioP1;P1;durP2;ratioP2;P2;SDS_P1;SDS_P2;PMS_P1;PMS_P2;Temp;Humidity;BMP_temperature;BMP_pressure;BME280_temperature;BME280_humidity;BME280_pressure;Samples;Min_cycle;Max_cycle;Signal;HPM_P1;HPM_P2
2022/10/20 00:00:57;;;;;;;14.50;8.07;;;7.90;99.90;;;;;;4846685;29;89772;-29
2022/10/20 00:03:23;;;;;;;13.73;7.35;;;7.90;99.90;;;;;;4846310;29;87910;-30
2022/10/20 00:05:49;;;;;;;10.15;7.25;;;7.90;99.90;;;;;;4846672;29;88817;-30
2022/10/20 00:08:15;;;;;;;7.00;6.30;;;7.80;99.90;;;;;;4847134;29;89987;-28
2022/10/20 00:10:41;;;;;;;15.90;7.45;;;7.80;99.90;;;;;;4846174;29;89811;-27
2022/10/20 00:13:07;;;;;;;9.43;6.60;;;7.80;99.90;;;;;;4847139;29;87601;-31
2022/10/20 00:15:33;;;;;;;10.10;6.10;;;7.90;99.90;;;;;;4846378;29;88113;-28
2022/10/20 00:17:59;;;;;;;10.75;7.05;;;7.90;99.90;;;;;;4846713;29;89316;-30
2022/10/20 00:20:24;;;;;;;8.65;6.97;;;7.80;99.90;;;;;;4846975;29;89486;-28
2022/10/20 00:22:50;;;;;;;11.40;6.70;;;7.70;99.90;;;;;;4845986;29;88213;-28
2022/10/20 00:25:16;;;;;;;14.20;6.70;;;7.80;99.90;;;;;;4846675;29;89130;-28
2022/10/20 00:27:41;;;;;;;9.88;7.50;;;7.80;99.90;;;;;;4845922;29;90237;-28
2022/10/20 00:30:07;;;;;;;14.45;6.57;;;7.70;99.90;;;;;;4846217;29;89839;-32
2022/10/20 00:32:33;;;;;;;6.68;6.00;;;7.70;99.90;;;;;;4846485;29;89861;-29
2022/10/20 00:34:58;;;;;;;9.18;6.32;;;7.70;99.90;;;;;;4845893;29;88742;-29
2022/10/20 00:37:24;;;;;;;11.73;5.97;;;7.70;99.90;;;;;;4847127;29;90188;-28
2022/10/20 00:39:50;;;;;;;8.13;6.90;;;7.70;99.90;;;;;;4845879;29;89521;-28
2022/10/20 00:42:17;;;;;;;13.75;7.32;;;7.60;99.90;;;;;;4846582;29;89598;-30
2022/10/20 00:44:55;;;;;;;7.53;6.80;;;7.60;99.90;;;;;;4846450;29;87683;-27
2022/10/20 00:47:32;;;;;;;7.95;6.38;;;7.70;99.90;;;;;;4841360;29;89800;-29
2022/10/20 00:50:22;;;;;;;9.57;7.05;;;7.60;99.90;;;;;;4844254;29;89961;-27
2022/10/20 00:52:48;;;;;;;7.53;6.13;;;7.60;99.90;;;;;;4845616;29;89783;-32
2022/10/20 00:55:19;;;;;;;10.15;5.80;;;7.60;99.90;;;;;;4846317;29;89340;-30
2022/10/20 00:57:48;;;;;;;8.40;6.90;;;7.60;99.90;;;;;;4844319;29;90939;-27
2022/10/20 01:00:15;;;;;;;6.85;6.03;;;7.50;99.90;;;;;;4834560;29;89721;-28
2022/10/20 01:02:41;;;;;;;8.02;5.97;;;7.50;99.90;;;;;;4845809;29;89342;-31
2022/10/20 01:05:07;;;;;;;7.53;6.65;;;7.50;99.90;;;;;;4845627;29;89028;-30
2022/10/20 01:07:33;;;;;;;11.50;7.05;;;7.50;99.90;;;;;;4845693;29;90212;-28
2022/10/20 01:09:59;;;;;;;8.68;7.22;;;7.40;99.90;;;;;;4845725;29;89822;-31
2022/10/20 01:12:52;;;;;;;9.13;6.88;;;7.40;99.90;;;;;;4846160;29;90994;-28
2022/10/20 01:15:55;;;;;;;8.77;6.40;;;7.40;99.90;;;;;;4845960;29;89577;-28
2022/10/20 01:18:42;;;;;;;9.32;7.40;;;7.50;99.90;;;;;;4845135;29;90782;-31
2022/10/20 01:21:32;;;;;;;9.07;6.50;;;7.40;99.90;;;;;;4845237;29;89813;-28
2022/10/20 01:24:03;;;;;;;8.52;7.13;;;7.40;99.90;;;;;;4846042;29;89671;-30
2022/10/20 01:27:17;;;;;;;11.85;7.25;;;7.40;99.90;;;;;;4846435;29;87533;-27
2022/10/20 01:29:44;;;;;;;10.13;7.75;;;7.20;99.90;;;;;;4817119;29;89989;-29
2022/10/20 01:32:21;;;;;;;11.25;6.30;;;7.20;99.90;;;;;;4845083;29;89601;-27
2022/10/20 01:35:20;;;;;;;7.68;6.60;;;7.20;99.90;;;;;;4846163;29;89402;-30
2022/10/20 01:37:54;;;;;;;7.03;5.13;;;7.20;99.90;;;;;;4845622;29;88679;-32
2022/10/20 01:40:46;;;;;;;10.45;7.32;;;7.20;99.90;;;;;;4845205;29;90044;-29
2022/10/20 01:43:14;;;;;;;8.23;6.93;;;7.10;99.90;;;;;;4845328;29;90343;-31
2022/10/20 01:45:43;;;;;;;10.00;7.28;;;7.10;99.90;;;;;;4845707;29;89343;-32
2022/10/20 01:48:12;;;;;;;10.73;6.88;;;7.10;99.90;;;;;;4846309;29;89124;-28
2022/10/20 01:50:39;;;;;;;12.55;7.90;;;7.10;99.90;;;;;;4845052;29;90453;-29
2022/10/20 01:53:05;;;;;;;8.07;7.38;;;7.10;99.90;;;;;;4845229;29;89554;-28
2022/10/20 01:55:31;;;;;;;9.85;6.85;;;7.00;99.90;;;;;;4845398;29;89273;-28
2022/10/20 01:58:14;;;;;;;8.68;6.70;;;7.00;99.90;;;;;;4845419;29;89747;-27
2022/10/20 02:00:41;;;;;;;9.65;6.85;;;7.00;99.90;;;;;;4845308;29;90208;-30
2022/10/20 02:03:25;;;;;;;8.00;6.97;;;6.90;99.90;;;;;;4845266;29;90527;-31
2022/10/20 02:06:17;;;;;;;14.98;8.35;;;7.00;99.90;;;;;;4845096;29;87699;-29
2022/10/20 02:08:55;;;;;;;11.43;7.45;;;7.00;99.90;;;;;;4845473;29;90120;-27
2022/10/20 02:11:48;;;;;;;9.38;7.03;;;7.00;99.90;;;;;;4844691;29;89237;-27
2022/10/20 02:14:17;;;;;;;8.05;7.25;;;6.90;99.90;;;;;;4845309;29;89902;-30
2022/10/20 02:16:47;;;;;;;7.78;6.45;;;7.00;99.90;;;;;;4845049;29;88192;-27
2022/10/20 02:19:17;;;;;;;8.45;6.75;;;7.00;99.90;;;;;;4845222;29;87601;-30
2022/10/20 02:21:43;;;;;;;8.77;7.80;;;7.00;99.90;;;;;;4844415;29;89988;-28
2022/10/20 02:24:10;;;;;;;9.88;7.70;;;6.90;99.90;;;;;;4845493;29;89615;-27
2022/10/20 02:26:38;;;;;;;8.52;7.63;;;6.90;99.90;;;;;;4844877;29;89631;-28
2022/10/20 02:29:14;;;;;;;14.57;8.73;;;6.90;99.90;;;;;;4844933;29;87655;-30
2022/10/20 02:31:41;;;;;;;10.48;7.97;;;6.90;99.90;;;;;;4845665;29;90363;-31
2022/10/20 02:34:07;;;;;;;8.93;8.02;;;7.00;99.90;;;;;;4848083;29;89998;-27
2022/10/20 02:36:40;;;;;;;8.98;7.47;;;7.00;99.90;;;;;;4848077;29;87555;-27
2022/10/20 02:39:07;;;;;;;13.00;7.90;;;6.90;99.90;;;;;;4848348;29;87699;-28
2022/10/20 02:41:33;;;;;;;9.90;8.90;;;6.90;99.90;;;;;;4847905;29;88867;-30
2022/10/20 02:43:58;;;;;;;8.63;7.82;;;6.90;99.90;;;;;;4848149;29;89644;-29
2022/10/20 02:46:24;;;;;;;10.52;8.98;;;7.00;99.90;;;;;;4848098;29;88037;-30
2022/10/20 02:48:50;;;;;;;14.65;8.35;;;7.00;99.90;;;;;;4848346;29;87711;-30
2022/10/20 02:51:16;;;;;;;15.43;9.77;;;7.00;99.90;;;;;;4848554;29;90183;-27
2022/10/20 02:53:42;;;;;;;10.68;9.13;;;7.00;99.90;;;;;;4847548;29;90067;-30
2022/10/20 02:56:08;;;;;;;11.05;9.90;;;6.90;99.90;;;;;;4830596;29;88568;-29
2022/10/20 02:58:33;;;;;;;11.57;8.95;;;6.90;99.90;;;;;;4847915;29;88683;-30
2022/10/20 03:00:59;;;;;;;13.73;10.48;;;6.90;99.90;;;;;;4848094;29;90413;-27
2022/10/20 03:03:25;;;;;;;10.43;8.63;;;6.90;99.90;;;;;;4847404;29;89242;-29
2022/10/20 03:05:50;;;;;;;12.75;10.43;;;7.00;99.90;;;;;;4847223;29;87541;-26
2022/10/20 03:08:16;;;;;;;13.40;10.00;;;6.90;99.90;;;;;;4847409;29;90008;-27
2022/10/20 03:10:42;;;;;;;13.00;9.98;;;6.90;99.90;;;;;;4846311;29;90232;-28
2022/10/20 03:13:09;;;;;;;12.25;10.02;;;6.90;99.90;;;;;;4846407;29;88614;-32
2022/10/20 03:15:35;;;;;;;15.65;11.00;;;6.90;99.90;;;;;;4846989;29;89812;-26
2022/10/20 03:18:01;;;;;;;12.20;9.95;;;6.90;99.90;;;;;;4846570;29;87688;-28
2022/10/20 03:20:26;;;;;;;11.25;10.15;;;6.90;99.90;;;;;;4847800;29;90526;-30
2022/10/20 03:22:52;;;;;;;10.85;9.20;;;6.90;99.90;;;;;;4845776;29;89798;-30
2022/10/20 03:25:17;;;;;;;13.88;10.73;;;6.90;99.90;;;;;;4847456;29;88322;-31
2022/10/20 03:27:43;;;;;;;11.70;10.50;;;6.90;99.90;;;;;;4846691;29;88648;-28
2022/10/20 03:30:09;;;;;;;12.55;10.73;;;6.90;99.90;;;;;;4846372;29;90228;-28
2022/10/20 03:32:35;;;;;;;18.25;10.98;;;6.80;99.90;;;;;;4845825;29;89786;-29
2022/10/20 03:35:00;;;;;;;14.25;10.60;;;7.00;99.90;;;;;;4845999;29;88133;-28
2022/10/20 03:37:26;;;;;;;16.25;11.93;;;6.90;99.90;;;;;;4846717;29;90219;-26
2022/10/20 03:39:51;;;;;;;15.48;11.68;;;6.90;99.90;;;;;;4846000;29;90411;-28
2022/10/20 03:42:17;;;;;;;16.48;12.23;;;6.90;99.90;;;;;;4846439;29;89154;-27
2022/10/20 03:44:45;;;;;;;15.40;12.27;;;6.90;99.90;;;;;;4846507;29;89012;-27
2022/10/20 03:47:12;;;;;;;13.82;10.70;;;6.80;99.90;;;;;;4846420;29;87582;-27
2022/10/20 03:49:38;;;;;;;12.05;10.18;;;6.80;99.90;;;;;;4845935;29;90540;-28
2022/10/20 03:52:04;;;;;;;15.63;12.18;;;6.80;99.90;;;;;;4846144;29;89880;-29
2022/10/20 03:54:29;;;;;;;13.27;12.07;;;6.90;99.90;;;;;;4845974;29;90388;-29
2022/10/20 03:56:55;;;;;;;16.27;12.07;;;6.90;99.90;;;;;;4845715;29;88898;-31
2022/10/20 03:59:21;;;;;;;15.80;11.65;;;6.80;99.90;;;;;;4845535;29;90292;-30
2022/10/20 04:01:47;;;;;;;13.35;11.88;;;6.90;99.90;;;;;;4845549;29;89658;-31
2022/10/20 04:04:13;;;;;;;19.25;12.13;;;6.90;99.90;;;;;;4846189;29;89201;-29
2022/10/20 04:06:38;;;;;;;19.27;13.73;;;6.80;99.90;;;;;;4845805;29;89139;-29
2022/10/20 04:09:04;;;;;;;18.00;13.57;;;6.80;99.90;;;;;;4846075;29;91345;-28
2022/10/20 04:11:31;;;;;;;13.43;11.38;;;6.80;99.90;;;;;;4845695;29;89626;-30
2022/10/20 04:13:56;;;;;;;14.35;12.77;;;6.70;99.90;;;;;;4845015;29;87700;-27
2022/10/20 04:16:22;;;;;;;16.02;13.65;;;6.80;99.90;;;;;;4846071;29;87666;-29
2022/10/20 04:18:48;;;;;;;17.13;13.20;;;6.80;99.90;;;;;;4845673;29;90124;-28
2022/10/20 04:21:14;;;;;;;21.52;14.90;;;6.80;99.90;;;;;;4845553;29;89741;-31
2022/10/20 04:23:39;;;;;;;17.67;14.63;;;6.80;99.90;;;;;;4846081;29;89898;-31
2022/10/20 04:26:13;;;;;;;19.73;15.15;;;6.80;99.90;;;;;;4845461;29;90742;-32
2022/10/20 04:28:39;;;;;;;22.35;14.15;;;6.80;99.90;;;;;;4832111;29;92715;-27
2022/10/20 04:31:06;;;;;;;17.88;15.93;;;6.90;99.90;;;;;;4877911;23;89853;-28
2022/10/20 04:33:32;;;;;;;20.25;13.93;;;6.90;99.90;;;;;;4863488;28;90116;-29
2022/10/20 04:35:59;;;;;;;17.17;15.05;;;6.90;99.90;;;;;;4864342;28;88786;-29
2022/10/20 04:38:24;;;;;;;20.80;14.90;;;6.80;99.90;;;;;;4863952;28;89377;-26
2022/10/20 04:40:55;;;;;;;14.20;12.77;;;6.80;99.90;;;;;;4864436;28;90607;-28
2022/10/20 04:43:20;;;;;;;19.58;14.02;;;6.80;99.90;;;;;;4847281;28;90321;-28
2022/10/20 04:45:46;;;;;;;16.45;14.43;;;6.80;99.90;;;;;;4864318;28;89334;-30
2022/10/20 04:48:11;;;;;;;20.50;16.63;;;6.70;99.90;;;;;;4864329;28;90721;-32
2022/10/20 04:50:37;;;;;;;18.27;12.90;;;6.60;99.90;;;;;;4864003;28;88906;-31
2022/10/20 04:53:02;;;;;;;17.25;14.77;;;6.80;99.90;;;;;;4863778;28;87536;-31
2022/10/20 04:55:28;;;;;;;19.60;14.40;;;6.80;99.90;;;;;;4863378;28;89418;-26
2022/10/20 04:57:54;;;;;;;22.35;16.63;;;6.90;99.90;;;;;;4859244;28;90620;-28
2022/10/20 05:00:20;;;;;;;18.83;16.27;;;6.80;99.90;;;;;;4855849;28;90194;-30
2022/10/20 05:02:45;;;;;;;19.40;14.90;;;6.80;99.90;;;;;;4863441;28;89545;-31
2022/10/20 05:05:11;;;;;;;17.08;15.35;;;6.80;99.90;;;;;;4863910;28;88917;-29
2022/10/20 05:07:36;;;;;;;17.77;15.15;;;6.80;99.90;;;;;;4864305;28;90105;-28
2022/10/20 05:10:02;;;;;;;24.85;16.63;;;6.80;99.90;;;;;;4863345;28;89646;-32
2022/10/20 05:12:28;;;;;;;22.77;16.60;;;6.70;99.90;;;;;;4863895;28;88553;-31
2022/10/20 05:14:53;;;;;;;21.33;16.38;;;6.80;99.90;;;;;;4863525;28;88925;-29
2022/10/20 05:17:19;;;;;;;23.08;16.20;;;6.70;99.90;;;;;;4864007;28;90263;-30
2022/10/20 05:19:44;;;;;;;19.65;13.68;;;6.70;99.90;;;;;;4863267;28;90851;-30
2022/10/20 05:22:10;;;;;;;18.73;15.00;;;6.80;99.90;;;;;;4863829;28;88229;-29
2022/10/20 05:24:36;;;;;;;28.05;17.98;;;6.70;99.90;;;;;;4863402;28;88321;-28
2022/10/20 05:27:02;;;;;;;22.00;16.98;;;6.80;99.90;;;;;;4862970;28;89356;-30
2022/10/20 05:29:27;;;;;;;21.73;17.45;;;6.70;99.90;;;;;;4864200;28;90168;-30
2022/10/20 05:31:53;;;;;;;19.48;17.42;;;6.80;99.90;;;;;;4862388;28;87839;-28
2022/10/20 05:34:19;;;;;;;19.02;16.58;;;6.70;99.90;;;;;;4864070;28;90238;-28
2022/10/20 05:36:44;;;;;;;21.95;18.83;;;6.70;99.90;;;;;;4863166;28;90621;-30
2022/10/20 05:39:10;;;;;;;21.52;16.95;;;6.60;99.90;;;;;;4863366;28;88707;-28
2022/10/20 05:41:36;;;;;;;20.48;17.33;;;6.60;99.90;;;;;;4864136;28;88127;-28
2022/10/20 05:44:03;;;;;;;19.95;17.77;;;6.60;99.90;;;;;;4863443;28;89894;-27
2022/10/20 05:46:31;;;;;;;27.20;17.25;;;6.60;99.90;;;;;;4863425;28;90097;-30
2022/10/20 05:48:59;;;;;;;25.42;17.23;;;6.70;99.90;;;;;;4863208;28;89682;-30
2022/10/20 05:51:27;;;;;;;22.52;20.23;;;6.70;99.90;;;;;;4863694;28;87516;-27
2022/10/20 05:53:57;;;;;;;22.17;17.52;;;6.60;99.90;;;;;;4863201;28;89082;-28
2022/10/20 05:56:24;;;;;;;21.63;18.13;;;6.70;99.90;;;;;;4863115;28;90119;-27
2022/10/20 05:58:50;;;;;;;29.42;18.55;;;6.60;99.90;;;;;;4863234;28;88347;-28
2022/10/20 06:01:23;;;;;;;25.20;18.42;;;6.70;99.90;;;;;;4863450;28;89633;-32
2022/10/20 06:03:55;;;;;;;19.80;16.33;;;6.60;99.90;;;;;;4863300;28;87612;-28
2022/10/20 06:06:25;;;;;;;24.05;19.95;;;6.60;99.90;;;;;;4865488;28;91500;-28
2022/10/20 06:08:52;;;;;;;16.20;13.32;;;6.60;99.90;;;;;;4866028;28;90870;-28
2022/10/20 06:11:19;;;;;;;23.13;16.95;;;6.60;99.90;;;;;;4865719;28;88319;-29
2022/10/20 06:13:44;;;;;;;20.95;18.70;;;6.50;99.90;;;;;;4866804;28;88330;-28
2022/10/20 06:16:16;;;;;;;27.60;19.40;;;6.50;99.90;;;;;;4866621;28;90485;-28
2022/10/20 06:18:42;;;;;;;24.20;20.05;;;6.60;99.90;;;;;;4863656;28;89678;-28
2022/10/20 06:21:17;;;;;;;20.50;18.25;;;6.40;99.90;;;;;;4848601;28;87677;-32
2022/10/20 06:23:43;;;;;;;25.40;19.27;;;6.50;99.90;;;;;;4847947;29;88747;-30
2022/10/20 06:26:11;;;;;;;26.10;19.77;;;6.40;99.90;;;;;;4847687;29;90209;-29
2022/10/20 06:28:38;;;;;;;23.60;18.55;;;6.40;99.90;;;;;;4847275;29;89108;-29
2022/10/20 06:31:18;;;;;;;22.63;18.92;;;6.60;99.90;;;;;;4846501;29;87533;-31
2022/10/20 06:33:45;;;;;;;28.42;20.52;;;6.60;99.90;;;;;;4847079;29;89542;-29
2022/10/20 06:36:11;;;;;;;30.20;21.67;;;6.50;99.90;;;;;;4847414;29;90310;-31
2022/10/20 06:38:37;;;;;;;22.80;19.10;;;6.50;99.90;;;;;;4847391;29;89617;-28
2022/10/20 06:41:09;;;;;;;23.52;19.63;;;6.60;99.90;;;;;;4847032;29;88772;-29
2022/10/20 06:43:35;;;;;;;23.88;19.27;;;6.60;99.90;;;;;;4846963;29;89999;-28
2022/10/20 06:46:03;;;;;;;21.70;17.40;;;6.60;99.90;;;;;;4847491;29;90336;-31
2022/10/20 06:48:29;;;;;;;25.30;21.00;;;6.60;99.90;;;;;;4847177;29;90759;-29
2022/10/20 06:50:59;;;;;;;24.50;18.65;;;6.70;99.90;;;;;;4847084;29;89851;-31
2022/10/20 06:53:26;;;;;;;22.80;19.10;;;6.70;99.90;;;;;;4847569;29;89956;-29
2022/10/20 06:56:15;;;;;;;23.95;20.80;;;6.80;99.90;;;;;;4847415;28;92167;-27
2022/10/20 06:58:43;;;;;;;26.40;20.65;;;6.70;99.90;;;;;;4847292;28;89535;-27
2022/10/20 07:01:22;;;;;;;21.48;15.68;;;6.80;99.90;;;;;;4846165;29;88969;-29
2022/10/20 07:03:48;;;;;;;31.92;18.00;;;6.80;99.90;;;;;;4830007;29;88852;-28
2022/10/20 07:06:20;;;;;;;22.55;18.08;;;6.90;99.90;;;;;;4846705;29;90526;-29
2022/10/20 07:08:46;;;;;;;30.67;20.05;;;6.90;99.90;;;;;;4844985;29;89670;-30
2022/10/20 07:11:15;;;;;;;20.63;18.48;;;7.00;99.90;;;;;;4846601;29;88405;-26
2022/10/20 07:13:41;;;;;;;19.63;17.02;;;7.00;99.90;;;;;;4835752;29;89460;-28
2022/10/20 07:16:10;;;;;;;22.70;15.98;;;7.00;99.90;;;;;;4845555;28;90708;-29
2022/10/20 07:18:37;;;;;;;24.83;20.15;;;7.10;99.90;;;;;;4845181;29;88504;-30
2022/10/20 07:21:05;;;;;;;19.20;15.55;;;7.20;99.90;;;;;;4843180;28;87887;-30
2022/10/20 07:23:31;;;;;;;24.55;19.80;;;7.20;99.90;;;;;;4844205;29;88116;-29
2022/10/20 07:26:07;;;;;;;17.95;16.02;;;7.20;99.90;;;;;;4843500;29;89949;-26
2022/10/20 07:28:34;;;;;;;20.77;17.95;;;7.20;99.90;;;;;;4843303;28;89359;-31
2022/10/20 07:31:09;;;;;;;19.80;17.70;;;7.30;99.90;;;;;;4843888;29;87624;-27
2022/10/20 07:33:35;;;;;;;20.58;18.35;;;7.30;99.90;;;;;;4842209;29;89528;-30
2022/10/20 07:36:01;;;;;;;23.48;18.13;;;7.30;99.90;;;;;;4843570;28;90146;-32
2022/10/20 07:38:26;;;;;;;22.83;17.75;;;7.30;99.90;;;;;;4842319;29;89573;-31
2022/10/20 07:40:52;;;;;;;20.50;18.33;;;7.50;99.90;;;;;;4848624;28;88977;-30
2022/10/20 07:43:18;;;;;;;20.65;16.60;;;7.50;99.90;;;;;;4846709;28;87531;-30
2022/10/20 07:45:44;;;;;;;19.95;14.43;;;7.50;99.90;;;;;;4862281;28;90530;-31
2022/10/20 07:48:10;;;;;;;19.77;16.23;;;7.50;99.90;;;;;;4862345;28;90499;-29
2022/10/20 07:50:39;;;;;;;17.58;15.02;;;7.60;99.90;;;;;;4862821;28;88573;-29
2022/10/20 07:53:05;;;;;;;24.27;17.50;;;7.60;99.90;;;;;;4862652;28;89845;-30
2022/10/20 07:55:33;;;;;;;18.70;16.70;;;7.70;99.90;;;;;;4855552;28;90104;-32
2022/10/20 07:57:59;;;;;;;24.75;17.65;;;7.80;99.90;;;;;;4843996;28;89693;-29
2022/10/20 08:00:24;;;;;;;17.52;14.50;;;7.80;99.90;;;;;;4843451;29;89660;-26
2022/10/20 08:02:50;;;;;;;23.70;17.70;;;7.90;99.90;;;;;;4843676;28;89339;-32
2022/10/20 08:05:16;;;;;;;24.15;17.33;;;7.90;99.90;;;;;;4843910;28;90445;-30
2022/10/20 08:07:41;;;;;;;23.38;17.65;;;8.00;99.90;;;;;;4845545;28;89616;-32
2022/10/20 08:10:07;;;;;;;23.17;16.88;;;8.00;99.90;;;;;;4842793;28;89535;-30
2022/10/20 08:12:33;;;;;;;18.45;16.00;;;8.00;99.90;;;;;;4841902;29;88377;-31
2022/10/20 08:14:59;;;;;;;20.92;17.42;;;8.10;99.90;;;;;;4842462;29;90441;-28
2022/10/20 08:17:25;;;;;;;20.55;17.70;;;8.20;99.90;;;;;;4841682;28;92239;-29
2022/10/20 08:19:51;;;;;;;17.77;14.25;;;8.20;99.90;;;;;;4842118;29;90241;-31
2022/10/20 08:22:18;;;;;;;19.27;16.83;;;8.30;99.90;;;;;;4842675;29;89033;-27
2022/10/20 08:24:44;;;;;;;23.63;15.70;;;8.40;99.90;;;;;;4841939;29;91621;-28
2022/10/20 08:27:10;;;;;;;16.02;12.45;;;8.50;99.90;;;;;;4859030;28;89694;-32
2022/10/20 08:29:36;;;;;;;20.20;16.50;;;8.60;99.90;;;;;;4861453;28;89557;-31
2022/10/20 08:32:01;;;;;;;17.45;15.40;;;8.60;99.90;;;;;;4860392;28;89169;-27
2022/10/20 08:34:27;;;;;;;18.50;14.90;;;8.70;99.90;;;;;;4861625;28;90302;-31
2022/10/20 08:36:53;;;;;;;15.30;13.73;;;8.70;99.90;;;;;;4860041;28;89729;-27
2022/10/20 08:39:18;;;;;;;21.20;15.68;;;8.80;99.90;;;;;;4861270;28;90143;-31
2022/10/20 08:41:46;;;;;;;17.08;14.20;;;8.80;99.90;;;;;;4860318;28;90411;-28
2022/10/20 08:44:24;;;;;;;18.58;16.02;;;8.80;99.90;;;;;;4860916;28;90239;-28
2022/10/20 08:46:50;;;;;;;25.80;13.10;;;8.90;99.90;;;;;;4860458;28;91219;-28
2022/10/20 08:49:28;;;;;;;17.48;15.65;;;9.00;99.90;;;;;;4850322;28;90042;-29
2022/10/20 08:51:54;;;;;;;16.65;15.00;;;9.10;99.90;;;;;;4841298;29;88754;-29
2022/10/20 08:54:19;;;;;;;19.75;13.57;;;9.10;99.90;;;;;;4843699;28;91046;-29
2022/10/20 08:56:46;;;;;;;26.45;15.77;;;9.10;99.90;;;;;;4851328;28;88559;-28
2022/10/20 08:59:36;;;;;;;13.15;11.88;;;9.20;99.90;;;;;;4861615;28;89656;-29
2022/10/20 09:02:10;;;;;;;15.57;14.02;;;9.30;99.90;;;;;;4861256;28;88446;-29
2022/10/20 09:04:42;;;;;;;17.02;13.73;;;9.40;99.90;;;;;;4860295;28;91212;-32
2022/10/20 09:07:31;;;;;;;14.95;13.30;;;9.50;99.90;;;;;;4860192;28;90861;-28
2022/10/20 09:10:34;;;;;;;18.88;12.90;;;9.60;99.90;;;;;;4833111;28;90938;-30
2022/10/20 09:13:04;;;;;;;17.90;12.90;;;9.70;99.90;;;;;;4842475;28;88379;-29
2022/10/20 09:15:30;;;;;;;25.52;13.27;;;9.70;99.90;;;;;;4841306;29;90257;-29
2022/10/20 09:18:00;;;;;;;20.27;13.15;;;9.80;99.90;;;;;;4841516;28;90459;-34
2022/10/20 09:20:47;;;;;;;15.80;14.07;;;9.80;99.90;;;;;;4841527;29;90637;-32
2022/10/20 09:23:16;;;;;;;17.77;13.48;;;9.90;99.90;;;;;;4824027;29;88223;-31
2022/10/20 09:25:42;;;;;;;;;;;10.00;99.90;;;;;;4842107;29;90199;-29
2022/10/20 09:28:23;;;;;;;16.08;12.43;;;10.00;99.90;;;;;;4842775;29;90243;-30
2022/10/20 09:30:50;;;;;;;13.75;12.35;;;10.00;99.90;;;;;;4840762;28;89587;-31
2022/10/20 09:33:33;;;;;;;16.60;12.70;;;10.00;99.90;;;;;;4839993;28;91772;-28
2022/10/20 09:36:19;;;;;;;14.02;12.60;;;10.10;99.90;;;;;;4840600;29;90162;-29
2022/10/20 09:38:48;;;;;;;14.65;12.30;;;10.10;99.90;;;;;;4840075;29;91148;-29
2022/10/20 09:41:30;;;;;;;15.75;11.63;;;10.20;99.90;;;;;;4840512;29;90110;-29
2022/10/20 09:44:24;;;;;;;18.85;11.35;;;10.30;99.90;;;;;;4834366;28;89354;-30
2022/10/20 09:46:52;;;;;;;14.55;12.23;;;10.30;99.90;;;;;;4840013;29;90197;-28
2022/10/20 09:49:25;;;;;;;14.63;12.10;;;10.40;99.90;;;;;;4840714;28;89711;-30
2022/10/20 09:51:52;;;;;;;14.40;11.85;;;10.40;99.90;;;;;;4840705;29;88993;-29
2022/10/20 09:54:19;;;;;;;16.27;12.65;;;10.50;99.90;;;;;;4845305;28;89050;-30
2022/10/20 09:56:48;;;;;;;16.58;12.32;;;10.60;99.90;;;;;;4855024;28;90359;-30
2022/10/20 09:59:25;;;;;;;18.55;12.48;;;10.70;99.90;;;;;;4859055;28;90802;-30
2022/10/20 10:02:00;;;;;;;15.63;13.40;;;10.70;99.90;;;;;;4859807;28;90647;-30
2022/10/20 10:04:35;;;;;;;13.30;12.05;;;10.80;99.90;;;;;;4859207;28;89172;-28
2022/10/20 10:07:02;;;;;;;16.65;12.88;;;10.90;99.90;;;;;;4859643;28;90707;-30
2022/10/20 10:09:33;;;;;;;11.65;10.48;;;11.00;99.90;;;;;;4859033;28;91061;-31
2022/10/20 10:12:11;;;;;;;14.38;12.15;;;11.00;99.90;;;;;;4859724;28;89989;-29
2022/10/20 10:14:47;;;;;;;15.98;13.20;;;11.10;99.90;;;;;;4859554;28;89239;-30
2022/10/20 10:17:47;;;;;;;14.63;11.95;;;11.20;99.90;;;;;;4859244;28;90453;-27
2022/10/20 10:20:13;;;;;;;14.45;11.50;;;11.20;99.90;;;;;;4858955;28;89653;-30
2022/10/20 10:22:39;;;;;;;12.82;11.23;;;11.20;99.90;;;;;;4859671;28;89663;-30
2022/10/20 10:25:13;;;;;;;11.18;9.40;;;11.20;99.90;;;;;;4859306;28;89175;-31
2022/10/20 10:27:38;;;;;;;15.68;12.10;;;11.30;99.90;;;;;;4859770;28;90313;-30
2022/10/20 10:30:18;;;;;;;14.10;9.90;;;11.40;99.90;;;;;;4859768;28;90718;-32
2022/10/20 10:32:46;;;;;;;18.77;10.63;;;11.40;99.90;;;;;;4859767;28;89568;-31
2022/10/20 10:35:30;;;;;;;13.47;11.50;;;11.50;99.90;;;;;;4859843;28;87763;-30
2022/10/20 10:37:57;;;;;;;12.30;11.15;;;11.50;99.90;;;;;;4859434;28;90915;-29
2022/10/20 10:40:44;;;;;;;12.82;11.27;;;11.70;99.90;;;;;;4859520;28;89215;-29
2022/10/20 10:43:29;;;;;;;11.52;9.80;;;11.80;99.90;;;;;;4859658;28;88744;-31
2022/10/20 10:46:07;;;;;;;15.10;11.38;;;12.00;99.90;;;;;;4837244;28;89879;-27
2022/10/20 10:48:39;;;;;;;15.00;10.50;;;12.10;99.90;;;;;;4858945;28;90376;-30
2022/10/20 10:51:34;;;;;;;11.95;10.75;;;12.30;99.90;;;;;;4858672;28;90783;-28
2022/10/20 10:54:22;;;;;;;15.48;11.35;;;12.30;99.90;;;;;;4861904;28;90624;-28
2022/10/20 10:56:49;;;;;;;;;;;12.30;99.90;;;;;;4862828;28;89698;-29
2022/10/20 10:59:26;;;;;;;14.60;11.77;;;12.50;99.90;;;;;;4854349;28;90265;-34
2022/10/20 11:02:26;;;;;;;11.93;9.43;;;12.50;99.90;;;;;;4851562;28;89319;-31
2022/10/20 11:05:13;;;;;;;11.55;9.77;;;12.70;99.90;;;;;;4752041;29;89858;-29
2022/10/20 11:08:07;;;;;;;11.45;10.27;;;12.70;99.90;;;;;;4843831;29;89531;-31
2022/10/20 11:11:05;;;;;;;12.20;11.07;;;12.60;99.90;;;;;;4838877;29;90816;-30
2022/10/20 11:13:39;;;;;;;12.13;9.18;;;12.70;99.90;;;;;;4750344;29;89823;-28
2022/10/20 11:16:28;;;;;;;11.07;9.98;;;12.60;99.90;;;;;;4840188;29;89542;-29
2022/10/20 11:19:12;;;;;;;13.07;9.75;;;12.60;99.90;;;;;;4842368;29;90167;-30
2022/10/20 11:22:00;;;;;;;12.30;10.80;;;12.60;99.90;;;;;;4841892;29;90986;-31
2022/10/20 11:24:46;;;;;;;11.65;9.45;;;12.70;99.90;;;;;;4843056;29;90594;-29
2022/10/20 11:27:14;;;;;;;13.25;11.00;;;12.90;99.90;;;;;;4834032;29;89533;-31
2022/10/20 11:29:56;;;;;;;12.32;9.90;;;13.00;99.90;;;;;;4842697;29;89308;-30
2022/10/20 11:32:27;;;;;;;11.93;10.63;;;13.00;99.90;;;;;;4843337;28;90412;-31
2022/10/20 11:34:59;;;;;;;11.85;9.80;;;13.00;99.90;;;;;;4842348;29;89952;-29
2022/10/20 11:37:29;;;;;;;12.75;10.77;;;13.10;99.90;;;;;;4843351;28;89918;-30
2022/10/20 11:40:20;;;;;;;11.48;10.43;;;13.00;99.90;;;;;;4842867;28;89401;-31
2022/10/20 11:43:04;;;;;;;15.25;10.25;;;13.00;99.90;;;;;;4842079;29;90608;-29
2022/10/20 11:45:50;;;;;;;18.75;10.00;;;13.00;99.90;;;;;;4841803;29;91313;-28
2022/10/20 11:48:24;;;;;;;16.92;11.07;;;13.00;99.90;;;;;;4841136;29;91724;-29
2022/10/20 11:51:04;;;;;;;12.10;9.95;;;13.10;99.90;;;;;;4840343;29;89526;-32
2022/10/20 11:54:02;;;;;;;12.95;10.90;;;13.00;99.90;;;;;;4842176;29;90260;-33
2022/10/20 11:56:49;;;;;;;11.82;9.98;;;13.00;99.90;;;;;;4848945;28;89935;-33
2022/10/20 11:59:20;;;;;;;11.90;10.60;;;13.00;99.90;;;;;;4861025;28;88847;-31
2022/10/20 12:02:13;;;;;;;18.50;11.57;;;13.00;99.90;;;;;;4843610;28;90600;-32
2022/10/20 12:05:16;;;;;;;13.00;11.70;;;13.10;99.90;;;;;;4860860;28;91427;-30
2022/10/20 12:07:41;;;;;;;14.18;8.88;;;13.20;99.90;;;;;;4860644;28;89813;-29
2022/10/20 12:10:22;;;;;;;13.30;11.25;;;13.10;99.90;;;;;;4862221;28;89587;-33
2022/10/20 12:13:10;;;;;;;12.73;10.32;;;13.20;99.90;;;;;;4860448;28;89279;-32
2022/10/20 12:15:45;;;;;;;15.88;10.05;;;13.20;99.90;;;;;;4860890;28;89292;-31
2022/10/20 12:18:17;;;;;;;11.00;9.90;;;13.20;99.90;;;;;;4860118;28;89881;-32
2022/10/20 12:20:49;;;;;;;15.60;11.55;;;13.20;99.90;;;;;;4861903;28;88491;-31
2022/10/20 12:23:53;;;;;;;14.07;10.07;;;13.20;99.90;;;;;;4860747;28;88928;-33
2022/10/20 12:26:28;;;;;;;15.20;12.23;;;13.20;99.90;;;;;;4861690;28;90124;-30
2022/10/20 12:28:55;;;;;;;13.32;11.18;;;13.20;99.90;;;;;;4860777;28;89732;-28
2022/10/20 12:31:20;;;;;;;13.73;9.55;;;13.20;99.90;;;;;;4862647;28;89495;-30
2022/10/20 12:33:48;;;;;;;14.63;10.75;;;13.20;99.90;;;;;;4864248;28;88987;-29
2022/10/20 12:36:17;;;;;;;13.30;11.38;;;13.20;99.90;;;;;;4862762;28;90022;-32
2022/10/20 12:38:49;;;;;;;12.93;11.63;;;13.10;99.90;;;;;;4861424;28;90567;-30
2022/10/20 12:41:29;;;;;;;13.43;11.70;;;13.10;99.90;;;;;;4863402;28;90382;-29
2022/10/20 12:44:00;;;;;;;13.05;11.48;;;13.00;99.90;;;;;;4863434;28;87647;-32
2022/10/20 12:46:30;;;;;;;14.45;12.10;;;13.00;99.90;;;;;;4863230;28;90015;-31
2022/10/20 12:49:00;;;;;;;15.98;11.82;;;13.00;99.90;;;;;;4862769;28;89209;-30
2022/10/20 12:52:06;;;;;;;14.90;11.38;;;13.00;99.90;;;;;;4863529;28;89229;-29
2022/10/20 12:54:39;;;;;;;15.85;12.15;;;12.90;99.90;;;;;;4839584;28;89162;-28
2022/10/20 12:57:26;;;;;;;16.20;12.07;;;12.80;99.90;;;;;;4863271;28;90737;-29
2022/10/20 12:59:52;;;;;;;16.65;12.70;;;12.80;99.90;;;;;;4856443;28;90215;-34